الصفحة الرئيسية
METAR-TAF:

METAR-TAF

مطار :

سيماي, كازاخستان

دائرة عرض: 50-21-05N, خط طول: 080-14-04E, ارتفاع: 232 متر

مراقبة الطقس الحالي

تاريخ ووقت الإصدار 4ساعات و 34 دقيقة قبل الساعة 13:30UTC
ريح 10 عقدة من الشرق/الجنوب الشرقي
درجة الحرارة 31°درجة مئوية
الرطوبة 21%
ضغط 1005 hPa
الرؤية 10 كم أو أكثر
غيوم مفككة على ارتفاع 4300 قدم, مزنة ركامية.

METAR: UASS 161330Z 11005MPS 9999 BKN043CB 31/06 Q1005 NOSIG RMK QFE736/0981

زمن: 00:04 (18:04 UTC)

توقعات

تاريخ ووقت الإصدار 4ساعات و 9 دقيقة قبل الساعة 13:55UTC
التوقعات صالحة من16 الساعة 15 UTC إلى 16 الساعة 24 UTC
ريح 10 عقدة من الجنوب الشرقي
الرؤية 10 كم أو أكثر
غيوم مفككة على ارتفاع 4000 قدم, مزنة ركامية.
مؤقت
من 16 الساعة 15 UTC إلى 16 الساعة 21 UTC
زخات من الأمطار الخفيفة

TAF: UASS 161355Z 1615/1624 14005MPS 9999 BKN040CB TEMPO 1615/1621 -SHRA

أرصاد الطقس والتوقعات من أكثر من 4000 مطار (تقارير الطقس للمطار METAR والتنبؤ بالطقس بالمطارTAF).

المحطات المتاحة هي النقط الصفراء والحمراء على الخريطة.

حرك المؤشر فوق النقطة لمعرفة اسم المحطة.

ثم انقر لمعرفة أرصاد وتوقعات الطقس.

لتغيير الخارطة: اضغط على الأزرار الخضراء مع رمز الصليب الأسود للتكبير. على الزر الأخضر مع شرطة للتصغير، أو على الأسهم الخضراء للخرائط المجاورة.


METAR-TAF: